createdAt,value
2019-01-30T00:00:59.236Z,1.41
2019-01-30T00:01:59.255Z,1.58
2019-01-30T00:02:59.280Z,1.42
2019-01-30T00:03:59.301Z,1.51
2019-01-30T00:04:59.327Z,1.44
2019-01-30T00:05:59.347Z,1.41
2019-01-30T00:06:59.370Z,1.40
2019-01-30T00:07:59.494Z,1.42
2019-01-30T00:08:59.415Z,1.30
2019-01-30T00:09:59.440Z,1.29
2019-01-30T00:10:59.463Z,1.26
2019-01-30T00:11:59.484Z,1.42
2019-01-30T00:12:59.508Z,1.44
2019-01-30T00:13:59.531Z,1.44
2019-01-30T00:14:59.557Z,1.52
2019-01-30T00:15:59.576Z,1.36
2019-01-30T00:16:59.600Z,1.37
2019-01-30T00:17:59.624Z,1.45
2019-01-30T00:18:59.647Z,1.34
2019-01-30T00:19:59.669Z,1.40
2019-01-30T00:20:59.692Z,1.40
2019-01-30T00:21:59.715Z,1.40
2019-01-30T00:22:59.740Z,1.45
2019-01-30T00:23:59.763Z,1.37
2019-01-30T00:24:59.785Z,1.58
2019-01-30T00:25:59.808Z,1.51
2019-01-30T00:26:59.836Z,1.58
2019-01-30T00:27:59.855Z,1.54
2019-01-30T00:28:59.878Z,1.52
2019-01-30T00:30:04.181Z,1.51
2019-01-30T00:30:59.924Z,1.48
2019-01-30T00:31:59.947Z,1.69
2019-01-30T00:32:59.971Z,1.68
2019-01-30T00:33:59.994Z,1.72
2019-01-30T00:35:00.017Z,1.81
2019-01-30T00:36:00.040Z,1.91
2019-01-30T00:37:00.064Z,1.93
2019-01-30T00:38:00.085Z,1.86
2019-01-30T00:39:00.109Z,1.88
2019-01-30T00:40:00.200Z,1.79
2019-01-30T00:41:00.156Z,1.68
2019-01-30T00:42:00.179Z,1.63
2019-01-30T00:43:00.201Z,1.70
2019-01-30T00:44:00.224Z,1.65
2019-01-30T00:45:00.249Z,1.70
2019-01-30T00:46:00.273Z,1.72
2019-01-30T00:47:00.297Z,1.80
2019-01-30T00:48:00.317Z,1.84
2019-01-30T00:49:00.340Z,1.80
2019-01-30T00:50:00.372Z,1.84
2019-01-30T00:51:00.386Z,1.87
2019-01-30T00:52:00.412Z,1.87
2019-01-30T00:53:00.434Z,1.88
2019-01-30T00:54:00.456Z,1.93
2019-01-30T00:55:00.479Z,1.87
2019-01-30T00:56:00.516Z,1.90
2019-01-30T00:57:00.619Z,1.87
2019-01-30T00:58:00.549Z,1.84
2019-01-30T00:59:00.574Z,1.81
2019-01-30T01:00:00.615Z,1.81
2019-01-30T01:01:00.618Z,1.81
2019-01-30T01:02:00.643Z,1.90
2019-01-30T01:03:00.666Z,1.86
2019-01-30T01:04:00.688Z,1.99
2019-01-30T01:05:00.711Z,1.88
2019-01-30T01:06:00.735Z,1.98
2019-01-30T01:07:00.758Z,1.95
2019-01-30T01:08:00.781Z,1.99
2019-01-30T01:09:00.807Z,2.10
2019-01-30T01:10:00.830Z,2.10
2019-01-30T01:11:00.852Z,2.12
2019-01-30T01:12:00.874Z,2.17
2019-01-30T01:13:00.898Z,2.24
2019-01-30T01:14:00.921Z,2.35
2019-01-30T01:15:00.945Z,2.56
2019-01-30T01:16:00.969Z,2.60
2019-01-30T01:17:00.994Z,2.63
2019-01-30T01:18:01.015Z,2.69
2019-01-30T01:19:01.042Z,2.61
2019-01-30T01:20:01.061Z,2.57
2019-01-30T01:21:01.087Z,2.72
2019-01-30T01:22:01.109Z,2.75
2019-01-30T01:23:01.183Z,2.79
2019-01-30T01:24:01.155Z,2.71
2019-01-30T01:25:01.186Z,2.60
2019-01-30T01:26:01.203Z,2.49
2019-01-30T01:27:01.226Z,2.41
2019-01-30T01:28:01.248Z,2.45
2019-01-30T01:29:01.273Z,2.27
2019-01-30T01:30:01.295Z,2.25
2019-01-30T01:31:01.322Z,2.31
2019-01-30T01:32:01.343Z,2.28
2019-01-30T01:33:01.364Z,2.34
2019-01-30T01:34:01.392Z,2.27
2019-01-30T01:35:01.414Z,2.23
2019-01-30T01:36:01.437Z,2.30
2019-01-30T01:37:01.459Z,2.39
2019-01-30T01:38:01.484Z,2.30
2019-01-30T01:39:01.507Z,2.35
2019-01-30T01:40:01.565Z,2.39
2019-01-30T01:41:01.558Z,2.48
2019-01-30T01:42:01.577Z,2.42
2019-01-30T01:43:01.603Z,2.45
2019-01-30T01:44:01.624Z,2.31
2019-01-30T01:45:01.650Z,2.39
2019-01-30T01:46:01.671Z,2.46
2019-01-30T01:47:01.693Z,2.35
2019-01-30T01:48:01.719Z,2.41
2019-01-30T01:49:01.740Z,2.38
2019-01-30T01:50:01.765Z,2.31
2019-01-30T01:51:01.788Z,2.35
2019-01-30T01:52:01.810Z,2.46
2019-01-30T01:53:01.839Z,2.42
2019-01-30T01:54:01.858Z,2.52
2019-01-30T01:55:01.882Z,2.56
2019-01-30T01:56:01.902Z,2.52
2019-01-30T01:57:01.928Z,2.45
2019-01-30T01:58:01.954Z,2.52
2019-01-30T01:59:01.974Z,2.54
2019-01-30T02:00:01.998Z,2.42
2019-01-30T02:01:02.020Z,2.46
2019-01-30T02:02:02.043Z,2.63
2019-01-30T02:03:02.068Z,2.69
2019-01-30T02:04:02.090Z,2.74
2019-01-30T02:05:02.115Z,2.72
2019-01-30T02:06:02.136Z,2.78
2019-01-30T02:07:02.162Z,2.75
2019-01-30T02:08:02.184Z,2.56
2019-01-30T02:09:02.209Z,2.71
2019-01-30T02:10:02.229Z,2.56
2019-01-30T02:11:02.254Z,2.63
2019-01-30T02:12:02.278Z,2.84
2019-01-30T02:13:02.350Z,2.67
2019-01-30T02:14:02.324Z,2.67
2019-01-30T02:15:02.348Z,2.79
2019-01-30T02:16:02.375Z,2.74
2019-01-30T02:17:02.394Z,2.79
2019-01-30T02:18:02.419Z,2.81
2019-01-30T02:19:02.442Z,2.96
2019-01-30T02:20:02.462Z,2.96
2019-01-30T02:21:02.490Z,2.95
2019-01-30T02:22:02.511Z,2.79
2019-01-30T02:23:02.536Z,2.78
2019-01-30T02:24:02.556Z,2.82
2019-01-30T02:25:02.585Z,2.89
2019-01-30T02:26:02.604Z,2.77
2019-01-30T02:27:02.629Z,2.78
2019-01-30T02:28:02.651Z,2.74
2019-01-30T02:29:02.676Z,2.84
2019-01-30T02:30:02.703Z,2.78
2019-01-30T02:31:02.725Z,2.69
2019-01-30T02:32:02.747Z,2.61
2019-01-30T02:33:02.770Z,2.60
2019-01-30T02:34:02.792Z,2.60
2019-01-30T02:35:02.817Z,2.63
2019-01-30T02:36:02.839Z,2.72
2019-01-30T02:37:02.864Z,2.79
2019-01-30T02:38:02.886Z,2.60
2019-01-30T02:39:02.909Z,2.57
2019-01-30T02:40:02.934Z,2.63
2019-01-30T02:41:02.956Z,2.63
2019-01-30T02:42:02.980Z,2.59
2019-01-30T02:43:03.008Z,2.67
2019-01-30T02:44:03.026Z,2.66
2019-01-30T02:45:03.049Z,2.61
2019-01-30T02:46:03.073Z,2.63
2019-01-30T02:47:03.098Z,2.63
2019-01-30T02:48:03.131Z,2.57
2019-01-30T02:49:03.143Z,2.48
2019-01-30T02:50:03.168Z,2.52
2019-01-30T02:51:03.191Z,2.48
2019-01-30T02:52:03.228Z,2.56
2019-01-30T02:53:03.242Z,2.54
2019-01-30T02:54:03.261Z,2.38
2019-01-30T02:55:03.294Z,2.42
2019-01-30T02:56:03.315Z,2.39
2019-01-30T02:57:03.331Z,2.48
2019-01-30T02:58:03.356Z,2.48
2019-01-30T02:59:03.379Z,2.43
2019-01-30T03:00:03.403Z,2.46
2019-01-30T03:01:03.426Z,2.49
2019-01-30T03:02:03.450Z,2.36
2019-01-30T03:03:03.474Z,2.34
2019-01-30T03:04:03.498Z,2.41
2019-01-30T03:05:03.523Z,2.39
2019-01-30T03:06:03.546Z,2.39
2019-01-30T03:07:03.569Z,2.25
2019-01-30T03:08:03.591Z,2.35
2019-01-30T03:09:03.615Z,2.35
2019-01-30T03:10:03.643Z,2.27
2019-01-30T03:11:03.666Z,2.25
2019-01-30T03:12:03.689Z,2.34
2019-01-30T03:13:03.712Z,2.35
2019-01-30T03:14:03.735Z,2.25
2019-01-30T03:15:03.758Z,2.27
2019-01-30T03:16:03.781Z,2.23
2019-01-30T03:17:03.808Z,2.30
2019-01-30T03:18:03.831Z,2.38
2019-01-30T03:19:03.854Z,2.45
2019-01-30T03:20:03.877Z,2.46
2019-01-30T03:21:03.902Z,2.35
2019-01-30T03:22:03.925Z,2.39
2019-01-30T03:23:03.951Z,2.34
2019-01-30T03:24:03.970Z,2.34
2019-01-30T03:25:03.995Z,2.46
2019-01-30T03:26:04.022Z,2.42
2019-01-30T03:27:04.043Z,2.46
2019-01-30T03:28:04.067Z,2.38
2019-01-30T03:29:04.089Z,2.42
2019-01-30T03:30:04.131Z,2.43
2019-01-30T03:31:16.942Z,2.38
2019-01-30T03:32:04.163Z,2.53
2019-01-30T03:33:04.187Z,2.48
2019-01-30T03:34:04.208Z,2.49
2019-01-30T03:35:04.235Z,2.43
2019-01-30T03:36:04.261Z,2.49
2019-01-30T03:37:04.281Z,2.45
2019-01-30T03:38:04.307Z,2.46
2019-01-30T03:39:04.329Z,2.45
2019-01-30T03:40:04.351Z,2.56
2019-01-30T03:41:04.376Z,2.48
2019-01-30T03:42:04.406Z,2.56
2019-01-30T03:43:04.425Z,2.53
2019-01-30T03:44:04.448Z,2.45
2019-01-30T03:45:04.471Z,2.48
2019-01-30T03:46:04.497Z,2.59
2019-01-30T03:47:04.521Z,2.59
2019-01-30T03:48:04.543Z,2.59
2019-01-30T03:49:04.568Z,2.66
2019-01-30T03:50:04.593Z,2.54
2019-01-30T03:51:04.615Z,2.57
2019-01-30T03:52:04.649Z,2.45
2019-01-30T03:53:04.664Z,2.45
2019-01-30T03:54:04.690Z,2.45
2019-01-30T03:55:04.711Z,2.43
2019-01-30T03:56:04.735Z,2.45
2019-01-30T03:57:04.759Z,2.43
2019-01-30T03:58:04.784Z,2.42
2019-01-30T03:59:04.809Z,2.49
2019-01-30T04:00:04.836Z,2.54
2019-01-30T04:01:04.857Z,2.53
2019-01-30T04:02:04.879Z,2.45
2019-01-30T04:03:04.905Z,2.42
2019-01-30T04:04:04.927Z,2.31
2019-01-30T04:05:04.953Z,2.34
2019-01-30T04:06:04.977Z,2.27
2019-01-30T04:07:05.001Z,2.28
2019-01-30T04:08:05.026Z,2.28
2019-01-30T04:09:05.050Z,2.30
2019-01-30T04:10:05.122Z,2.28
2019-01-30T04:11:05.097Z,2.41
2019-01-30T04:12:05.120Z,2.30
2019-01-30T04:13:05.144Z,2.41
2019-01-30T04:14:05.169Z,2.42
2019-01-30T04:15:05.192Z,2.46
2019-01-30T04:16:05.215Z,2.27
2019-01-30T04:17:05.242Z,2.25
2019-01-30T04:18:05.265Z,2.21
2019-01-30T04:19:05.287Z,2.27
2019-01-30T04:20:05.317Z,2.25
2019-01-30T04:21:05.336Z,2.10
2019-01-30T04:22:05.359Z,2.18
2019-01-30T04:23:05.383Z,2.10
2019-01-30T04:24:05.406Z,2.16
2019-01-30T04:25:05.430Z,2.24
2019-01-30T04:26:05.458Z,2.38
2019-01-30T04:27:05.479Z,2.39
2019-01-30T04:28:05.508Z,2.43
2019-01-30T04:29:05.526Z,2.46
2019-01-30T04:30:05.555Z,2.46
2019-01-30T04:31:05.573Z,2.54
2019-01-30T04:32:05.600Z,2.53
2019-01-30T04:33:05.620Z,2.46
2019-01-30T04:34:05.646Z,2.49
2019-01-30T04:35:05.668Z,2.52
2019-01-30T04:36:05.693Z,2.49
2019-01-30T04:37:05.715Z,2.42
2019-01-30T04:38:05.738Z,2.42
2019-01-30T04:39:05.814Z,2.36
2019-01-30T04:40:05.786Z,2.25
2019-01-30T04:41:05.809Z,2.28
2019-01-30T04:42:05.834Z,2.27
2019-01-30T04:43:05.860Z,2.10
2019-01-30T04:44:05.881Z,2.16
2019-01-30T04:45:05.905Z,2.16
2019-01-30T04:46:05.934Z,2.17
2019-01-30T04:47:05.953Z,2.16
2019-01-30T04:48:05.975Z,2.00
2019-01-30T04:49:06.000Z,1.99
2019-01-30T04:50:06.022Z,2.00
2019-01-30T04:51:06.047Z,1.99
2019-01-30T04:52:06.071Z,1.87
2019-01-30T04:53:06.094Z,1.99
2019-01-30T04:54:06.119Z,1.98
2019-01-30T04:55:06.142Z,1.86
2019-01-30T04:56:06.173Z,1.99
2019-01-30T04:57:06.189Z,1.91
2019-01-30T04:58:06.214Z,1.95
2019-01-30T04:59:06.239Z,1.88
2019-01-30T05:00:06.262Z,1.90
2019-01-30T05:01:06.285Z,1.88
2019-01-30T05:02:06.310Z,1.80
2019-01-30T05:03:06.335Z,1.81
2019-01-30T05:04:06.357Z,1.98
2019-01-30T05:05:06.382Z,1.80
2019-01-30T05:06:06.455Z,1.88
2019-01-30T05:07:06.429Z,1.90
2019-01-30T05:08:06.462Z,1.86
2019-01-30T05:09:06.478Z,1.88
2019-01-30T05:10:06.500Z,1.81
2019-01-30T05:11:06.525Z,1.83
2019-01-30T05:12:06.548Z,1.95
2019-01-30T05:13:06.573Z,1.98
2019-01-30T05:14:06.603Z,1.98
2019-01-30T05:15:06.621Z,1.87
2019-01-30T05:16:06.644Z,1.93
2019-01-30T05:17:06.668Z,1.91
2019-01-30T05:18:06.693Z,1.95
2019-01-30T05:19:06.718Z,1.91
2019-01-30T05:20:09.665Z,2.02
2019-01-30T05:21:06.771Z,2.00
2019-01-30T05:22:06.790Z,2.02
2019-01-30T05:23:06.866Z,2.00
2019-01-30T05:24:06.836Z,1.98
2019-01-30T05:25:06.861Z,2.10
2019-01-30T05:26:06.885Z,2.16
2019-01-30T05:27:06.916Z,2.18
2019-01-30T05:28:06.932Z,2.16
2019-01-30T05:29:06.956Z,2.18
2019-01-30T05:30:06.982Z,2.10
2019-01-30T05:31:07.009Z,2.21
2019-01-30T05:32:07.029Z,2.20
2019-01-30T05:33:07.057Z,2.12
2019-01-30T05:34:07.078Z,2.17
2019-01-30T05:35:07.102Z,2.16
2019-01-30T05:36:07.124Z,2.18
2019-01-30T05:37:07.148Z,2.27
2019-01-30T05:38:07.173Z,2.34
2019-01-30T05:39:07.198Z,2.31
2019-01-30T05:40:07.221Z,2.31
2019-01-30T05:41:07.246Z,2.23
2019-01-30T05:42:07.269Z,2.17
2019-01-30T05:43:07.293Z,2.18
2019-01-30T05:44:07.317Z,2.17
2019-01-30T05:45:07.351Z,2.16
2019-01-30T05:46:07.372Z,2.23
2019-01-30T05:47:07.390Z,2.06
2019-01-30T05:48:07.416Z,2.18
2019-01-30T05:49:07.438Z,2.03
2019-01-30T05:50:07.460Z,2.00
2019-01-30T05:51:07.487Z,1.91
2019-01-30T05:52:07.511Z,1.99
2019-01-30T05:53:07.533Z,1.93
2019-01-30T05:54:07.559Z,1.95
2019-01-30T05:55:07.588Z,1.93
2019-01-30T05:56:07.603Z,1.83
2019-01-30T05:57:07.629Z,1.80
2019-01-30T05:58:07.650Z,1.70
2019-01-30T05:59:07.676Z,1.63
2019-01-30T06:00:07.699Z,1.63
2019-01-30T06:01:07.724Z,1.54
2019-01-30T06:02:12.219Z,1.48
2019-01-30T06:03:07.773Z,1.51
2019-01-30T06:04:07.794Z,1.58
2019-01-30T06:05:07.818Z,1.37
2019-01-30T06:06:07.843Z,1.47
2019-01-30T06:07:07.866Z,1.44
2019-01-30T06:08:07.887Z,1.41
2019-01-30T06:09:07.913Z,1.40
2019-01-30T06:10:07.945Z,1.41
2019-01-30T06:11:07.962Z,1.40
2019-01-30T06:12:07.985Z,1.51
2019-01-30T06:13:08.007Z,1.66
2019-01-30T06:14:08.032Z,1.65
2019-01-30T06:15:08.056Z,1.69
2019-01-30T06:16:08.080Z,1.62
2019-01-30T06:17:09.601Z,1.51
2019-01-30T06:18:08.125Z,1.60
2019-01-30T06:19:08.149Z,1.62
2019-01-30T06:20:08.174Z,1.72
2019-01-30T06:21:08.198Z,1.90
2019-01-30T06:22:08.221Z,2.14
2019-01-30T06:23:08.253Z,2.43
2019-01-30T06:24:08.269Z,3.18
2019-01-30T06:25:08.292Z,3.43
2019-01-30T06:26:08.315Z,3.58
2019-01-30T06:27:08.338Z,3.51
2019-01-30T06:28:08.361Z,3.52
2019-01-30T06:29:08.388Z,3.86
2019-01-30T06:30:08.409Z,4.04
2019-01-30T06:31:08.433Z,4.02
2019-01-30T06:32:08.455Z,4.12
2019-01-30T06:33:08.479Z,4.18
2019-01-30T06:34:08.504Z,4.04
2019-01-30T06:35:08.527Z,4.05
2019-01-30T06:36:08.550Z,4.06
2019-01-30T06:37:08.574Z,4.18
2019-01-30T06:38:08.597Z,4.12
2019-01-30T06:39:08.621Z,4.15
2019-01-30T06:40:08.646Z,4.22
2019-01-30T06:41:08.671Z,4.27
2019-01-30T06:42:08.695Z,4.26
2019-01-30T06:43:08.720Z,4.23
2019-01-30T06:44:08.740Z,4.18
2019-01-30T06:45:08.764Z,4.22
2019-01-30T06:46:08.789Z,4.29
2019-01-30T06:47:08.813Z,4.29
2019-01-30T06:48:08.837Z,4.54
2019-01-30T06:49:08.859Z,4.66
2019-01-30T06:50:08.891Z,4.72
2019-01-30T06:51:08.910Z,4.70
2019-01-30T06:52:08.932Z,4.89
2019-01-30T06:53:08.959Z,4.92
2019-01-30T06:54:08.981Z,5.10
2019-01-30T06:55:09.004Z,5.03
2019-01-30T06:56:09.029Z,5.03
2019-01-30T06:57:09.054Z,4.99
2019-01-30T06:58:09.101Z,4.91
2019-01-30T06:59:09.168Z,4.84
2019-01-30T07:00:09.127Z,4.85
2019-01-30T07:01:09.150Z,4.80
2019-01-30T07:02:09.176Z,4.80
2019-01-30T07:03:09.201Z,4.80
2019-01-30T07:04:09.223Z,4.78
2019-01-30T07:05:09.250Z,4.77
2019-01-30T07:06:09.277Z,4.72
2019-01-30T07:07:09.298Z,4.67
2019-01-30T07:08:09.321Z,4.86
2019-01-30T07:09:09.347Z,4.80
2019-01-30T07:10:09.371Z,4.75
2019-01-30T07:11:10.699Z,4.63
2019-01-30T07:12:09.418Z,4.58
2019-01-30T07:13:09.444Z,4.66
2019-01-30T07:14:09.468Z,4.72
2019-01-30T07:15:09.493Z,4.82
2019-01-30T07:16:09.519Z,4.85
2019-01-30T07:17:09.543Z,4.88
2019-01-30T07:18:09.568Z,5.00
2019-01-30T07:19:09.590Z,5.02
2019-01-30T07:20:09.614Z,4.94
2019-01-30T07:21:09.638Z,5.00
2019-01-30T07:22:09.663Z,5.03
2019-01-30T07:23:09.688Z,5.06
2019-01-30T07:24:09.713Z,5.15
2019-01-30T07:25:09.738Z,5.04
2019-01-30T07:26:09.760Z,5.15
2019-01-30T07:27:09.787Z,5.07
2019-01-30T07:28:09.810Z,4.99
2019-01-30T07:29:09.837Z,4.97
2019-01-30T07:30:09.859Z,5.02
2019-01-30T07:31:09.884Z,5.09
2019-01-30T07:32:09.908Z,5.00
2019-01-30T07:33:09.933Z,4.96
2019-01-30T07:34:09.957Z,4.97
2019-01-30T07:35:09.982Z,5.00
2019-01-30T07:36:10.006Z,5.12
2019-01-30T07:37:10.031Z,5.24
2019-01-30T07:38:10.057Z,5.20
2019-01-30T07:39:10.080Z,5.22
2019-01-30T07:40:10.104Z,5.13
2019-01-30T07:41:10.129Z,5.17
2019-01-30T07:42:10.153Z,5.30
2019-01-30T07:43:10.179Z,5.42
2019-01-30T07:44:10.204Z,5.46
2019-01-30T07:45:10.227Z,5.60
2019-01-30T07:46:10.254Z,5.67
2019-01-30T07:47:10.278Z,5.56
2019-01-30T07:48:10.300Z,5.49
2019-01-30T07:49:10.417Z,5.54
2019-01-30T07:50:10.352Z,5.39
2019-01-30T07:51:10.376Z,5.45
2019-01-30T07:52:10.400Z,5.40
2019-01-30T07:53:10.426Z,5.51
2019-01-30T07:54:10.450Z,5.35
2019-01-30T07:55:10.475Z,5.30
2019-01-30T07:56:10.499Z,5.48
2019-01-30T07:57:10.523Z,5.71
2019-01-30T07:58:10.549Z,5.63
2019-01-30T07:59:10.575Z,5.64
2019-01-30T08:00:10.605Z,5.72
2019-01-30T08:01:10.625Z,5.82
2019-01-30T08:02:10.649Z,5.89
2019-01-30T08:03:10.676Z,6.18
2019-01-30T08:04:10.699Z,6.22
2019-01-30T08:05:10.725Z,6.04
2019-01-30T08:06:10.750Z,6.22
2019-01-30T08:07:10.776Z,6.09
2019-01-30T08:08:10.803Z,6.37
2019-01-30T08:09:10.826Z,6.73
2019-01-30T08:10:10.853Z,6.76
2019-01-30T08:11:10.879Z,6.76
2019-01-30T08:12:12.574Z,6.59
2019-01-30T08:13:10.929Z,7.21
2019-01-30T08:14:10.955Z,8.47
2019-01-30T08:15:10.981Z,7.72
2019-01-30T08:16:11.007Z,7.60
2019-01-30T08:17:11.029Z,7.15
2019-01-30T08:18:11.056Z,6.71
2019-01-30T08:19:11.083Z,6.49
2019-01-30T08:20:11.108Z,6.34
2019-01-30T08:21:11.133Z,6.11
2019-01-30T08:22:11.162Z,6.12
2019-01-30T08:23:11.449Z,6.08
2019-01-30T08:24:11.289Z,6.00
2019-01-30T08:25:11.248Z,6.08
2019-01-30T08:26:11.633Z,5.94
2019-01-30T08:27:11.537Z,6.03
2019-01-30T08:28:11.409Z,5.99
2019-01-30T08:29:11.534Z,6.04
2019-01-30T08:30:22.087Z,6.12
2019-01-30T08:31:11.715Z,6.00
2019-01-30T08:32:11.748Z,5.97
2019-01-30T08:33:11.476Z,5.93
2019-01-30T08:34:11.472Z,6.17
2019-01-30T08:35:11.500Z,6.17
2019-01-30T08:36:11.524Z,6.17
2019-01-30T08:37:11.548Z,6.09
2019-01-30T08:38:11.575Z,6.22
2019-01-30T08:39:11.602Z,6.40
2019-01-30T08:40:11.627Z,6.54
2019-01-30T08:41:11.652Z,6.51
2019-01-30T08:42:11.682Z,6.46
2019-01-30T08:43:11.705Z,6.54
2019-01-30T08:44:11.729Z,6.56
2019-01-30T08:45:11.756Z,6.51
2019-01-30T08:46:11.782Z,6.55
2019-01-30T08:47:11.809Z,6.66
2019-01-30T08:48:11.835Z,6.46
2019-01-30T08:49:11.861Z,6.43
2019-01-30T08:50:11.887Z,6.71
2019-01-30T08:51:11.916Z,6.73
2019-01-30T08:52:11.941Z,6.74
2019-01-30T08:53:11.967Z,6.77
2019-01-30T08:54:11.993Z,6.92
2019-01-30T08:55:12.021Z,6.70
2019-01-30T08:56:12.048Z,6.80
2019-01-30T08:57:12.083Z,7.02
2019-01-30T08:58:12.101Z,7.49
2019-01-30T08:59:12.126Z,7.43
2019-01-30T09:00:12.152Z,7.55
2019-01-30T09:01:12.180Z,7.79
2019-01-30T09:02:12.206Z,8.23
2019-01-30T09:03:14.772Z,8.47
2019-01-30T09:04:12.261Z,8.47
2019-01-30T09:05:12.287Z,8.18
2019-01-30T09:06:12.316Z,7.92
2019-01-30T09:07:12.343Z,8.59
2019-01-30T09:08:12.367Z,8.15
2019-01-30T09:09:12.395Z,7.82
2019-01-30T09:10:12.423Z,7.79
2019-01-30T09:11:12.454Z,7.82
2019-01-30T09:12:12.478Z,7.68
2019-01-30T09:13:12.504Z,8.00
2019-01-30T09:14:12.532Z,7.97
2019-01-30T09:15:12.560Z,8.20
2019-01-30T09:16:12.586Z,7.95
2019-01-30T09:17:12.615Z,7.93
2019-01-30T09:18:12.678Z,7.95
2019-01-30T09:19:12.670Z,8.05
2019-01-30T09:20:12.698Z,7.80
2019-01-30T09:21:12.724Z,7.87
2019-01-30T09:22:12.752Z,7.92
2019-01-30T09:23:12.786Z,7.95
2019-01-30T09:24:12.807Z,8.68
2019-01-30T09:25:12.834Z,9.24
2019-01-30T09:26:12.863Z,9.91
2019-01-30T09:27:12.893Z,9.66
2019-01-30T09:28:12.918Z,9.35
2019-01-30T09:29:12.949Z,9.28
2019-01-30T09:30:12.975Z,9.08
2019-01-30T09:31:13.005Z,9.05
2019-01-30T09:32:13.031Z,8.56
2019-01-30T09:33:13.071Z,7.90
2019-01-30T09:34:13.090Z,7.57
2019-01-30T09:35:13.119Z,7.48
2019-01-30T09:36:13.144Z,7.05
2019-01-30T09:37:13.267Z,6.81
2019-01-30T09:38:13.199Z,6.76
2019-01-30T09:39:13.229Z,6.64
2019-01-30T09:40:13.256Z,6.34
2019-01-30T09:41:13.283Z,6.43
2019-01-30T09:42:13.311Z,6.37
2019-01-30T09:43:13.338Z,6.37
2019-01-30T09:44:13.364Z,6.44
2019-01-30T09:45:13.401Z,6.54
2019-01-30T09:46:13.419Z,6.44
2019-01-30T09:47:13.446Z,6.40
2019-01-30T09:48:13.472Z,6.51
2019-01-30T09:49:13.519Z,6.28
2019-01-30T09:50:13.533Z,6.22
2019-01-30T09:51:13.591Z,6.27
2019-01-30T09:52:13.601Z,6.46
2019-01-30T09:53:13.613Z,6.44
2019-01-30T09:54:13.659Z,6.37
2019-01-30T09:55:13.691Z,6.36
2019-01-30T09:56:15.479Z,6.37
2019-01-30T09:57:13.715Z,6.58
2019-01-30T09:58:13.743Z,6.84
2019-01-30T09:59:13.770Z,7.15
2019-01-30T10:00:13.794Z,7.16
2019-01-30T10:01:13.822Z,7.12
2019-01-30T10:02:13.850Z,6.91
2019-01-30T10:03:13.878Z,6.81
2019-01-30T10:04:13.902Z,6.92
2019-01-30T10:05:13.936Z,6.91
2019-01-30T10:06:13.956Z,6.97
2019-01-30T10:07:13.984Z,7.06
2019-01-30T10:08:14.010Z,6.70
2019-01-30T10:09:14.037Z,6.89
2019-01-30T10:10:14.068Z,6.79
2019-01-30T10:11:14.092Z,6.89
2019-01-30T10:12:14.117Z,6.91
2019-01-30T10:13:14.159Z,6.70
2019-01-30T10:14:14.171Z,6.76
2019-01-30T10:15:14.198Z,6.91
2019-01-30T10:16:14.226Z,6.87
2019-01-30T10:17:14.251Z,6.99
2019-01-30T10:18:14.278Z,6.91
2019-01-30T10:19:14.307Z,6.74
2019-01-30T10:20:14.332Z,6.77
2019-01-30T10:21:14.359Z,6.67
2019-01-30T10:22:14.386Z,6.71
2019-01-30T10:23:14.412Z,6.74
2019-01-30T10:24:14.437Z,6.67
2019-01-30T10:25:14.473Z,6.56
2019-01-30T10:26:14.493Z,6.18
2019-01-30T10:27:14.520Z,6.03
2019-01-30T10:28:16.717Z,6.11
2019-01-30T10:29:14.571Z,6.17
2019-01-30T10:30:14.600Z,6.28
2019-01-30T10:31:14.625Z,6.18
2019-01-30T10:32:14.651Z,6.17
2019-01-30T10:33:14.677Z,6.15
2019-01-30T10:34:14.707Z,6.28
2019-01-30T10:35:14.731Z,6.21
2019-01-30T10:36:14.756Z,6.25
2019-01-30T10:37:14.783Z,6.43
2019-01-30T10:38:14.811Z,6.40
2019-01-30T10:39:14.838Z,6.28
2019-01-30T10:40:14.862Z,6.19
2019-01-30T10:41:14.888Z,6.30
2019-01-30T10:42:14.915Z,5.83
2019-01-30T10:43:14.941Z,5.90
2019-01-30T10:44:14.969Z,6.00
2019-01-30T10:45:14.994Z,6.00
2019-01-30T10:46:15.022Z,6.08
2019-01-30T10:47:15.046Z,5.97
2019-01-30T10:48:15.094Z,6.00
2019-01-30T10:49:15.097Z,6.08
2019-01-30T10:50:15.124Z,5.99
2019-01-30T10:51:15.152Z,6.09
2019-01-30T10:52:15.177Z,6.09
2019-01-30T10:53:15.202Z,6.12
2019-01-30T10:54:15.228Z,6.28
2019-01-30T10:55:15.343Z,6.31
2019-01-30T10:56:16.628Z,6.44
2019-01-30T10:57:15.306Z,6.25
2019-01-30T10:58:15.346Z,6.21
2019-01-30T10:59:15.359Z,6.31
2019-01-30T11:00:15.384Z,6.30
2019-01-30T11:01:15.411Z,6.36
2019-01-30T11:02:15.437Z,6.38
2019-01-30T11:03:15.465Z,6.41
2019-01-30T11:04:15.489Z,6.44
2019-01-30T11:05:15.520Z,6.51
2019-01-30T11:06:15.542Z,6.44
2019-01-30T11:07:15.572Z,6.46
2019-01-30T11:08:15.593Z,6.41
2019-01-30T11:09:15.621Z,6.44
2019-01-30T11:10:15.647Z,6.41
2019-01-30T11:11:15.672Z,6.17
2019-01-30T11:12:15.701Z,6.21
2019-01-30T11:13:15.726Z,6.27
2019-01-30T11:14:15.752Z,6.28
2019-01-30T11:15:15.778Z,6.37
2019-01-30T11:16:15.813Z,6.48
2019-01-30T11:17:15.832Z,6.46
2019-01-30T11:18:15.857Z,6.52
2019-01-30T11:19:15.883Z,6.61
2019-01-30T11:20:15.911Z,6.71
2019-01-30T11:21:15.936Z,6.74
2019-01-30T11:22:15.961Z,6.76
2019-01-30T11:23:15.987Z,6.64
2019-01-30T11:24:16.013Z,6.70
2019-01-30T11:25:16.039Z,6.61
2019-01-30T11:26:16.066Z,6.61
2019-01-30T11:27:16.093Z,6.58
2019-01-30T11:28:16.117Z,6.48
2019-01-30T11:29:16.144Z,6.51
2019-01-30T11:30:16.170Z,6.33
2019-01-30T11:31:16.198Z,6.36
2019-01-30T11:32:16.222Z,6.33
2019-01-30T11:33:16.250Z,6.43
2019-01-30T11:34:16.276Z,6.49
2019-01-30T11:35:16.302Z,6.41
2019-01-30T11:36:16.328Z,6.38
2019-01-30T11:37:16.355Z,6.51
2019-01-30T11:38:16.382Z,6.54
2019-01-30T11:39:16.409Z,6.56
2019-01-30T11:40:16.433Z,6.61
2019-01-30T11:41:16.460Z,6.71
2019-01-30T11:42:16.488Z,6.54
2019-01-30T11:43:16.513Z,6.69
2019-01-30T11:44:16.539Z,6.61
2019-01-30T11:45:16.565Z,6.58
2019-01-30T11:46:16.592Z,6.54
2019-01-30T11:47:16.617Z,6.52
2019-01-30T11:48:16.644Z,6.30
2019-01-30T11:49:16.672Z,6.25
2019-01-30T11:50:16.697Z,6.09
2019-01-30T11:51:16.726Z,6.14
2019-01-30T11:52:16.749Z,6.19
2019-01-30T11:53:16.776Z,6.28
2019-01-30T11:54:16.805Z,6.37
2019-01-30T11:55:16.829Z,6.46
2019-01-30T11:56:16.854Z,6.28
2019-01-30T11:57:16.883Z,6.36
2019-01-30T11:58:16.908Z,6.40
2019-01-30T11:59:16.938Z,6.03
2019-01-30T12:00:17.012Z,6.12
2019-01-30T12:01:16.987Z,6.12
2019-01-30T12:02:17.013Z,6.08
2019-01-30T12:03:17.040Z,6.04
2019-01-30T12:04:18.224Z,5.97
2019-01-30T12:05:17.092Z,5.89
2019-01-30T12:06:17.117Z,5.96
2019-01-30T12:07:17.145Z,6.08
2019-01-30T12:08:17.168Z,6.00
2019-01-30T12:09:17.195Z,6.06
2019-01-30T12:10:17.222Z,6.03
2019-01-30T12:11:17.247Z,6.08
2019-01-30T12:12:17.273Z,6.12
2019-01-30T12:13:17.299Z,6.22
2019-01-30T12:14:17.327Z,6.31
2019-01-30T12:15:17.352Z,6.15
2019-01-30T12:16:17.379Z,6.19
2019-01-30T12:17:17.404Z,6.08
2019-01-30T12:18:17.430Z,6.03
2019-01-30T12:19:17.457Z,6.21
2019-01-30T12:20:17.482Z,6.09
2019-01-30T12:21:17.511Z,6.12
2019-01-30T12:22:17.534Z,6.22
2019-01-30T12:23:17.562Z,6.17
2019-01-30T12:24:17.586Z,6.12
2019-01-30T12:25:17.611Z,6.19
2019-01-30T12:26:17.638Z,6.17
2019-01-30T12:27:17.664Z,6.17
2019-01-30T12:28:17.691Z,6.11
2019-01-30T12:29:17.716Z,6.14
2019-01-30T12:30:17.744Z,6.03
2019-01-30T12:31:17.769Z,6.03
2019-01-30T12:32:17.795Z,5.83
2019-01-30T12:33:17.820Z,5.96
2019-01-30T12:34:27.862Z,5.93
2019-01-30T12:35:17.874Z,5.97
2019-01-30T12:36:17.899Z,6.03
2019-01-30T12:37:17.924Z,5.93
2019-01-30T12:38:17.951Z,5.90
2019-01-30T12:39:17.975Z,5.90
2019-01-30T12:40:18.002Z,5.91
2019-01-30T12:41:18.027Z,5.91
2019-01-30T12:42:18.055Z,5.79
2019-01-30T12:43:18.078Z,5.90
2019-01-30T12:44:18.103Z,5.86
2019-01-30T12:45:18.130Z,5.91
2019-01-30T12:46:18.157Z,6.08
2019-01-30T12:47:20.041Z,6.15
2019-01-30T12:48:18.208Z,6.06
2019-01-30T12:49:18.234Z,6.00
2019-01-30T12:50:18.261Z,5.82
2019-01-30T12:51:18.290Z,5.81
2019-01-30T12:52:18.317Z,5.83
2019-01-30T12:53:18.339Z,5.79
2019-01-30T12:54:18.363Z,5.93
2019-01-30T12:55:18.390Z,5.90
2019-01-30T12:56:18.415Z,5.81
2019-01-30T12:57:18.441Z,5.81
2019-01-30T12:58:18.467Z,5.65
2019-01-30T12:59:18.496Z,5.68
2019-01-30T13:00:18.518Z,5.78
2019-01-30T13:01:18.545Z,5.67
2019-01-30T13:02:18.570Z,5.46
2019-01-30T13:03:18.596Z,5.61
2019-01-30T13:04:18.622Z,5.75
2019-01-30T13:05:18.647Z,5.72
2019-01-30T13:06:18.678Z,5.82
2019-01-30T13:07:18.700Z,5.72
2019-01-30T13:08:18.724Z,5.78
2019-01-30T13:09:18.750Z,5.78
2019-01-30T13:10:18.775Z,5.72
2019-01-30T13:11:18.802Z,5.65
2019-01-30T13:12:18.828Z,5.64
2019-01-30T13:13:18.853Z,5.74
2019-01-30T13:14:18.879Z,5.78
2019-01-30T13:15:18.905Z,5.91
2019-01-30T13:16:18.930Z,5.82
2019-01-30T13:17:18.955Z,5.85
2019-01-30T13:18:19.111Z,5.89
2019-01-30T13:19:19.010Z,5.86